Time;durP1;ratioP1;P1;durP2;ratioP2;P2;SDS_P1;SDS_P2;PMS_P1;PMS_P2;Temp;Humidity;BMP_temperature;BMP_pressure;BME280_temperature;BME280_humidity;BME280_pressure;Samples;Min_cycle;Max_cycle;Signal;HPM_P1;HPM_P2
2022/04/25 00:00:13;;;;;;;15.43;6.38;;;;;;;9.42;77.07;100287.38;5089153;28;20044;-71
2022/04/25 00:02:39;;;;;;;12.35;5.65;;;;;;;9.45;76.70;100287.22;5085583;28;20468;-71
2022/04/25 00:05:07;;;;;;;16.08;6.15;;;;;;;9.40;76.83;100294.47;5089553;28;20047;-71
2022/04/25 00:07:33;;;;;;;13.38;6.22;;;;;;;9.36;76.46;100285.94;5072128;28;20094;-71
2022/04/25 00:10:01;;;;;;;14.18;6.30;;;;;;;9.07;77.36;100295.34;5075977;28;20071;-71
2022/04/25 00:12:28;;;;;;;12.82;5.85;;;;;;;9.32;77.01;100294.88;5085343;28;20048;-71
2022/04/25 00:14:54;;;;;;;16.05;6.75;;;;;;;9.25;76.64;100302.22;5086297;28;20085;-72
2022/04/25 00:17:21;;;;;;;14.75;5.55;;;;;;;8.85;77.89;100301.75;5089039;28;20555;-72
2022/04/25 00:19:48;;;;;;;16.80;5.88;;;;;;;8.52;78.95;100299.09;5088443;28;20135;-72
2022/04/25 00:22:14;;;;;;;12.73;6.18;;;;;;;8.78;78.46;100307.31;5074088;28;20048;-72
2022/04/25 00:24:41;;;;;;;12.05;5.95;;;;;;;8.95;77.41;100306.44;5069416;28;20094;-72
2022/04/25 00:27:09;;;;;;;10.65;6.20;;;;;;;9.03;77.38;100313.88;5069096;28;20041;-71
2022/04/25 00:29:36;;;;;;;12.63;5.85;;;;;;;9.13;76.59;100309.84;5080920;28;20040;-71
2022/04/25 00:32:02;;;;;;;16.08;6.10;;;;;;;9.24;76.51;100316.22;5077866;28;20048;-71
2022/04/25 00:34:29;;;;;;;14.95;5.82;;;;;;;9.26;76.33;100318.75;5088976;28;20054;-71
2022/04/25 00:36:55;;;;;;;14.07;5.90;;;;;;;9.20;76.20;100314.69;5076277;28;20889;-71
2022/04/25 00:39:22;;;;;;;11.35;5.70;;;;;;;9.28;75.81;100325.59;5070721;28;20044;-71
2022/04/25 00:41:48;;;;;;;13.38;6.18;;;;;;;9.21;75.75;100326.00;5068683;28;20578;-71
2022/04/25 00:44:17;;;;;;;20.95;6.53;;;;;;;9.35;75.58;100326.09;5068773;28;20101;-71
2022/04/25 00:46:47;;;;;;;15.35;7.28;;;;;;;9.33;75.87;100322.75;5087874;28;20093;-71
2022/04/25 00:49:14;;;;;;;13.82;6.22;;;;;;;9.18;76.96;100323.53;5086330;28;20136;-72
2022/04/25 00:51:42;;;;;;;12.43;6.55;;;;;;;9.30;77.26;100328.13;5079762;28;20495;-72
2022/04/25 00:54:09;;;;;;;15.10;6.85;;;;;;;9.19;77.63;100328.69;5075205;28;20048;-72
2022/04/25 00:56:36;;;;;;;13.60;6.70;;;;;;;9.29;77.26;100336.91;5068714;28;20477;-72
2022/04/25 00:59:03;;;;;;;14.02;6.80;;;;;;;9.40;77.21;100339.78;5078113;28;20048;-72
2022/04/25 01:01:32;;;;;;;14.25;6.90;;;;;;;9.21;77.35;100334.69;5079510;28;20456;-72
2022/04/25 01:03:59;;;;;;;21.70;7.47;;;;;;;8.81;79.43;100335.06;5082266;28;20425;-72
2022/04/25 01:06:25;;;;;;;14.77;7.25;;;;;;;8.95;79.41;100336.97;5080077;28;20105;-72
2022/04/25 01:08:52;;;;;;;15.10;7.60;;;;;;;9.10;78.53;100336.16;5087863;28;20051;-72
2022/04/25 01:11:18;;;;;;;14.07;7.05;;;;;;;8.95;78.92;100332.56;5087999;28;20044;-72
2022/04/25 01:13:45;;;;;;;19.35;8.43;;;;;;;8.75;79.85;100330.16;5086462;28;20052;-74
2022/04/25 01:16:11;;;;;;;14.20;6.85;;;;;;;9.01;79.18;100334.91;5088054;28;20113;-74
2022/04/25 01:18:39;;;;;;;14.05;7.55;;;;;;;9.02;78.83;100330.47;5088365;28;20070;-74
2022/04/25 01:21:09;;;;;;;17.27;7.45;;;;;;;9.07;78.77;100337.19;5080095;28;20122;-74
2022/04/25 01:29:06;;;;;;;14.82;7.32;;;;;;;8.98;79.43;100339.44;5086404;28;20096;-73
2022/04/25 01:31:32;;;;;;;18.70;8.20;;;;;;;8.92;79.19;100335.34;5088249;28;20484;-74
2022/04/25 01:33:59;;;;;;;16.17;7.57;;;;;;;8.65;80.03;100339.34;5086201;28;20040;-74
2022/04/25 01:36:25;;;;;;;18.80;8.50;;;;;;;8.79;80.12;100347.38;5079214;28;20412;-75
2022/04/25 01:38:54;;;;;;;16.05;8.07;;;;;;;8.85;79.77;100356.66;5086790;28;20105;-75
2022/04/25 01:41:21;;;;;;;17.33;8.27;;;;;;;8.95;79.50;100356.09;5088122;28;20044;-74
2022/04/25 01:43:48;;;;;;;14.65;8.15;;;;;;;8.76;79.71;100353.56;5088078;28;20044;-74
2022/04/25 01:46:14;;;;;;;17.20;7.78;;;;;;;8.80;79.93;100349.03;5088336;28;20040;-74
2022/04/25 01:48:41;;;;;;;17.27;7.78;;;;;;;8.58;80.39;100348.41;5087454;28;20094;-74
2022/04/25 01:51:07;;;;;;;13.40;7.43;;;;;;;8.76;80.54;100352.72;5081125;28;20094;-74
2022/04/25 01:53:34;;;;;;;16.73;8.75;;;;;;;8.74;80.11;100350.22;5068478;28;20052;-74
2022/04/25 01:56:01;;;;;;;16.67;7.70;;;;;;;8.95;80.23;100347.41;5067708;28;20048;-73
2022/04/25 01:58:28;;;;;;;13.88;8.77;;;;;;;8.90;80.02;100350.28;5087191;28;20086;-74
2022/04/25 02:00:54;;;;;;;17.17;7.75;;;;;;;8.77;80.49;100350.06;5083032;28;20047;-74
2022/04/25 02:03:21;;;;;;;12.93;7.85;;;;;;;8.84;80.41;100360.19;5084069;28;20097;-74
2022/04/25 02:05:47;;;;;;;15.13;8.07;;;;;;;8.85;79.97;100356.66;5083809;28;20040;-74
2022/04/25 02:08:14;;;;;;;22.10;9.05;;;;;;;8.71;80.50;100354.75;5067800;28;20036;-74
2022/04/25 02:10:40;;;;;;;16.27;8.05;;;;;;;8.78;80.53;100359.59;5074330;28;20058;-74
2022/04/25 02:13:08;;;;;;;21.48;8.20;;;;;;;8.99;80.01;100351.56;5087103;28;20048;-74
2022/04/25 02:15:35;;;;;;;13.00;8.10;;;;;;;8.86;79.87;100361.81;5088467;28;20044;-74
2022/04/25 02:18:01;;;;;;;14.13;8.60;;;;;;;8.85;79.76;100361.88;5087219;28;20068;-74
2022/04/25 02:20:27;;;;;;;18.02;8.48;;;;;;;8.99;79.33;100360.25;5077903;28;20048;-74
2022/04/25 02:22:54;;;;;;;16.13;7.93;;;;;;;8.93;79.40;100357.13;5067779;28;20044;-74
2022/04/25 02:25:21;;;;;;;15.18;7.88;;;;;;;9.18;78.98;100365.41;5084032;28;20097;-74
2022/04/25 02:27:47;;;;;;;17.63;9.73;;;;;;;9.28;78.31;100366.59;5087633;28;20048;-74
2022/04/25 02:30:15;;;;;;;18.42;8.77;;;;;;;8.75;79.76;100361.50;5084116;28;20044;-74
2022/04/25 02:32:42;;;;;;;16.10;8.35;;;;;;;8.85;79.31;100369.72;5068279;28;20212;-74
2022/04/25 02:35:09;;;;;;;15.98;8.45;;;;;;;8.80;80.07;100375.19;5082266;28;20044;-74
2022/04/25 02:37:35;;;;;;;17.80;9.13;;;;;;;8.58;80.65;100367.56;5074451;28;20684;-74
2022/04/25 02:40:02;;;;;;;17.85;8.27;;;;;;;8.67;80.91;100369.75;5088260;28;20568;-74
2022/04/25 02:42:28;;;;;;;15.90;8.25;;;;;;;8.76;80.44;100369.25;5091097;28;20044;-74
2022/04/25 02:44:54;;;;;;;17.05;7.85;;;;;;;8.56;80.87;100366.81;5090679;28;20537;-74
2022/04/25 02:47:22;;;;;;;16.63;8.57;;;;;;;8.67;81.23;100374.13;5084947;28;20106;-74
2022/04/25 02:49:48;;;;;;;17.98;9.07;;;;;;;8.63;81.48;100377.81;5081673;28;20044;-74
2022/04/25 02:52:15;;;;;;;18.30;9.23;;;;;;;8.60;81.85;100378.81;5089506;28;20043;-74
2022/04/25 02:54:41;;;;;;;19.83;8.65;;;;;;;8.59;81.98;100377.09;5091499;28;20052;-74
2022/04/25 02:57:07;;;;;;;16.58;8.65;;;;;;;8.55;81.45;100377.31;5091230;28;20097;-74
2022/04/25 02:59:34;;;;;;;19.08;9.05;;;;;;;8.64;81.08;100375.13;5090714;28;20040;-75
2022/04/25 03:02:00;;;;;;;17.15;9.25;;;;;;;8.74;80.72;100363.28;5077267;28;20048;-75
2022/04/25 03:04:28;;;;;;;15.93;8.70;;;;;;;8.80;80.12;100370.81;5082970;28;20078;-75
2022/04/25 03:06:54;;;;;;;24.83;9.35;;;;;;;8.64;81.15;100375.13;5083339;28;20048;-75
2022/04/25 03:09:21;;;;;;;18.10;9.07;;;;;;;8.64;80.63;100376.88;5090173;28;20040;-76
2022/04/25 03:11:49;;;;;;;18.88;9.15;;;;;;;8.65;80.84;100368.94;5090554;28;20052;-76
2022/04/25 03:14:15;;;;;;;20.35;9.65;;;;;;;8.77;80.56;100376.19;5090644;28;20047;-76
2022/04/25 03:16:42;;;;;;;18.25;8.73;;;;;;;8.66;80.54;100377.63;5091064;28;20473;-76
2022/04/25 03:19:08;;;;;;;18.35;9.02;;;;;;;8.69;80.58;100375.72;5088559;28;20423;-76
2022/04/25 03:21:36;;;;;;;13.77;8.30;;;;;;;8.67;80.47;100382.81;5090660;28;20415;-76
2022/04/25 03:24:03;;;;;;;20.20;8.93;;;;;;;8.63;80.67;100386.50;5090858;28;20040;-76
2022/04/25 03:26:30;;;;;;;18.35;8.57;;;;;;;8.57;80.70;100384.16;5090660;28;20650;-76
2022/04/25 03:28:56;;;;;;;17.70;8.60;;;;;;;8.47;81.03;100382.91;5089467;28;20086;-76
2022/04/25 03:31:22;;;;;;;18.80;8.75;;;;;;;8.57;80.58;100380.72;5082204;28;20048;-76
2022/04/25 03:33:49;;;;;;;20.45;9.18;;;;;;;8.37;80.83;100386.91;5078848;28;20093;-76
2022/04/25 03:36:15;;;;;;;22.48;10.20;;;;;;;8.56;80.86;100382.50;5083048;28;20044;-76
2022/04/25 03:38:43;;;;;;;17.52;8.38;;;;;;;8.60;80.78;100388.41;5069684;28;20078;-76
2022/04/25 03:41:10;;;;;;;18.77;8.80;;;;;;;8.44;80.71;100385.69;5069679;28;20123;-76
2022/04/25 03:43:36;;;;;;;23.27;8.27;;;;;;;8.63;80.77;100389.09;5070655;28;20561;-76
2022/04/25 03:46:03;;;;;;;17.20;9.13;;;;;;;8.68;80.34;100396.72;5077958;28;20583;-76
2022/04/25 03:48:30;;;;;;;20.40;7.78;;;;;;;8.69;80.02;100394.03;5089981;28;20043;-76
2022/04/25 03:50:56;;;;;;;18.27;9.02;;;;;;;8.80;79.68;100402.19;5084101;28;20125;-76
2022/04/25 03:53:23;;;;;;;20.05;9.25;;;;;;;8.86;79.71;100401.03;5069838;28;20476;-75
2022/04/25 03:58:34;;;;;;;22.02;8.52;;;;;;;8.42;80.41;100405.84;5073970;28;20070;-74
2022/04/25 04:01:02;;;;;;;18.48;8.57;;;;;;;8.58;80.46;100406.75;5083749;28;20094;-74
2022/04/25 04:03:32;;;;;;;19.52;7.93;;;;;;;8.59;80.00;100408.47;5077727;28;20131;-74
2022/04/25 04:05:58;;;;;;;16.10;8.77;;;;;;;8.52;80.76;100422.75;5084610;28;20041;-73
2022/04/25 04:08:24;;;;;;;20.02;9.07;;;;;;;8.63;80.54;100414.38;5069736;28;20126;-73
2022/04/25 04:10:52;;;;;;;17.55;8.13;;;;;;;8.69;80.17;100414.06;5068437;28;20419;-73
2022/04/25 04:13:19;;;;;;;19.05;8.23;;;;;;;8.88;79.41;100417.47;5077227;28;20074;-73
2022/04/25 04:15:45;;;;;;;16.88;8.40;;;;;;;8.81;79.67;100416.09;5089705;28;20048;-73
2022/04/25 04:18:11;;;;;;;15.25;8.30;;;;;;;8.77;79.44;100423.25;5088903;28;20136;-73
2022/04/25 04:20:38;;;;;;;22.42;9.73;;;;;;;8.95;79.04;100424.09;5085737;28;20048;-74
2022/04/25 04:23:05;;;;;;;23.13;7.95;;;;;;;8.89;78.56;100423.56;5085360;28;20047;-72
2022/04/25 04:25:32;;;;;;;21.77;8.98;;;;;;;8.92;78.98;100428.63;5089716;28;20403;-72
2022/04/25 04:28:02;;;;;;;19.83;8.90;;;;;;;8.94;79.28;100435.50;5088298;28;20483;-73
2022/04/25 04:30:29;;;;;;;16.00;8.68;;;;;;;8.86;79.66;100439.41;5086179;28;20203;-73
2022/04/25 04:32:56;;;;;;;19.42;8.43;;;;;;;8.86;79.40;100455.09;5076384;28;20048;-73
2022/04/25 04:38:02;;;;;;;16.58;7.93;;;;;;;8.56;80.41;100455.66;5076776;28;20524;-72
2022/04/25 04:40:29;;;;;;;19.90;8.75;;;;;;;8.83;79.09;100458.72;5084422;28;20048;-72
2022/04/25 04:42:56;;;;;;;20.65;8.38;;;;;;;8.80;78.77;100459.69;5089189;28;20044;-72
2022/04/25 04:45:24;;;;;;;17.30;9.05;;;;;;;8.91;79.29;100453.94;5089238;28;20036;-72
2022/04/25 04:47:51;;;;;;;19.80;8.73;;;;;;;8.82;79.83;100456.16;5089187;28;20048;-72
2022/04/25 04:50:17;;;;;;;17.50;8.77;;;;;;;9.09;78.74;100455.63;5088095;28;20075;-71
2022/04/25 04:52:45;;;;;;;20.17;8.98;;;;;;;9.06;78.28;100460.16;5069120;28;20049;-71
2022/04/25 04:55:11;;;;;;;22.83;8.80;;;;;;;9.01;78.90;100467.41;5073245;28;20097;-72
2022/04/25 04:57:38;;;;;;;17.35;8.18;;;;;;;8.93;78.80;100466.94;5088216;28;20114;-72
2022/04/25 05:00:07;;;;;;;18.77;8.00;;;;;;;9.06;78.42;100471.47;5087917;28;20071;-72
2022/04/25 05:02:35;;;;;;;17.17;9.00;;;;;;;9.13;78.49;100467.63;5084510;28;20082;-72
2022/04/25 05:05:02;;;;;;;19.00;8.60;;;;;;;9.21;77.89;100465.47;5087105;28;20048;-72
2022/04/25 05:07:28;;;;;;;16.45;8.18;;;;;;;9.21;77.73;100472.47;5088865;28;20093;-72
2022/04/25 05:09:55;;;;;;;16.23;7.53;;;;;;;8.76;78.82;100486.03;5087341;28;20047;-72
2022/04/25 05:12:21;;;;;;;19.80;8.65;;;;;;;8.74;79.39;100475.69;5088058;28;20040;-72
2022/04/25 05:14:48;;;;;;;17.70;8.27;;;;;;;8.67;79.51;100481.28;5087002;28;20060;-72
2022/04/25 05:17:14;;;;;;;16.75;8.02;;;;;;;8.87;79.27;100481.16;5085323;28;20097;-72
2022/04/25 05:19:42;;;;;;;21.20;9.02;;;;;;;8.97;79.04;100485.03;5081643;28;20047;-72
2022/04/25 05:22:08;;;;;;;19.05;9.50;;;;;;;9.26;78.23;100494.03;5082806;28;20060;-73
2022/04/25 05:24:35;;;;;;;21.60;8.90;;;;;;;9.13;77.78;100490.31;5087269;28;20065;-73
2022/04/25 05:27:01;;;;;;;17.35;8.25;;;;;;;9.26;77.67;100491.44;5073027;28;20097;-72
2022/04/25 05:29:27;;;;;;;19.48;8.43;;;;;;;9.35;77.82;100493.56;5078024;28;20044;-72
2022/04/25 05:31:54;;;;;;;17.58;8.93;;;;;;;9.40;78.09;100494.19;5077536;28;20110;-71
2022/04/25 05:34:21;;;;;;;20.08;9.10;;;;;;;9.49;77.45;100493.72;5083233;28;20044;-71
2022/04/25 05:36:48;;;;;;;16.63;8.90;;;;;;;9.50;77.35;100494.56;5087581;28;20678;-71
2022/04/25 05:39:15;;;;;;;14.00;8.98;;;;;;;9.34;77.54;100498.88;5086608;28;20077;-71
2022/04/25 05:41:42;;;;;;;19.50;8.57;;;;;;;9.23;77.64;100492.44;5087627;28;20052;-71
2022/04/25 05:44:10;;;;;;;18.63;8.63;;;;;;;9.26;77.20;100504.50;5074221;28;20097;-71
2022/04/25 05:46:36;;;;;;;12.20;7.40;;;;;;;9.16;77.79;100505.91;5077134;28;20559;-71
2022/04/25 05:52:02;;;;;;;15.38;8.32;;;;;;;9.17;77.81;100510.19;5076387;28;20054;-71
2022/04/25 05:54:28;;;;;;;17.63;8.57;;;;;;;9.45;77.28;100512.28;5069918;28;20129;-71
2022/04/25 05:56:55;;;;;;;15.55;8.38;;;;;;;9.62;76.61;100505.25;5083713;28;20044;-71
2022/04/25 05:59:21;;;;;;;14.07;7.85;;;;;;;9.23;77.24;100508.13;5087186;28;20121;-71
2022/04/25 06:01:47;;;;;;;12.85;7.88;;;;;;;9.46;76.91;100517.41;5079629;28;20068;-71
2022/04/25 06:04:14;;;;;;;19.50;8.45;;;;;;;9.48;76.97;100519.97;5087386;28;20098;-71
2022/04/25 06:06:40;;;;;;;13.40;8.45;;;;;;;9.34;77.00;100519.81;5088115;28;20101;-71
2022/04/25 06:09:08;;;;;;;15.55;8.77;;;;;;;9.33;77.71;100523.34;5087458;28;20063;-71
2022/04/25 06:11:34;;;;;;;17.08;8.02;;;;;;;9.51;77.09;100525.91;5082207;28;20114;-71
2022/04/25 06:14:02;;;;;;;15.68;8.32;;;;;;;9.07;78.23;100525.50;5067442;28;20634;-71
2022/04/25 06:16:28;;;;;;;14.07;8.50;;;;;;;9.19;77.85;100531.91;5086232;28;20526;-71
2022/04/25 06:18:55;;;;;;;12.48;8.15;;;;;;;9.17;77.43;100531.09;5088098;28;20044;-71
2022/04/25 06:21:21;;;;;;;20.35;9.20;;;;;;;9.44;76.82;100539.38;5102251;28;20096;-71
2022/04/25 06:23:47;;;;;;;15.77;8.90;;;;;;;9.42;76.52;100534.22;5105670;28;20104;-72
2022/04/25 06:26:15;;;;;;;13.30;8.23;;;;;;;9.55;77.55;100542.28;5096918;28;20377;-72
2022/04/25 06:28:42;;;;;;;17.75;8.70;;;;;;;9.64;76.89;100537.47;5079352;28;20044;-72
2022/04/25 06:31:08;;;;;;;12.10;8.27;;;;;;;9.71;77.11;100540.59;5082884;28;20465;-72
2022/04/25 06:33:35;;;;;;;27.50;8.63;;;;;;;9.48;77.69;100546.16;5075916;28;20067;-73
2022/04/25 06:36:01;;;;;;;15.60;8.60;;;;;;;9.71;76.77;100549.31;5078079;28;20044;-72
2022/04/25 06:38:27;;;;;;;21.63;9.30;;;;;;;9.85;76.09;100545.97;5090925;28;20048;-73
2022/04/25 06:40:54;;;;;;;13.52;8.18;;;;;;;9.71;76.08;100551.91;5090567;28;20040;-72
2022/04/25 06:43:21;;;;;;;18.00;8.35;;;;;;;9.91;75.41;100550.03;5091737;28;20052;-72
2022/04/25 06:45:48;;;;;;;17.83;9.20;;;;;;;9.76;76.01;100547.28;5080152;28;20098;-72
2022/04/25 06:48:14;;;;;;;21.40;9.50;;;;;;;9.55;76.28;100558.00;5077707;28;20487;-72
2022/04/25 06:50:41;;;;;;;19.25;8.55;;;;;;;9.77;75.73;100554.22;5090635;28;20052;-72
2022/04/25 06:53:07;;;;;;;15.57;8.18;;;;;;;9.50;76.27;100560.84;5091759;28;20040;-72
2022/04/25 06:55:34;;;;;;;13.43;8.43;;;;;;;9.46;76.47;100564.53;5091219;28;20044;-72
2022/04/25 06:58:00;;;;;;;15.18;8.10;;;;;;;9.64;76.51;100554.94;5090856;28;20040;-72
2022/04/25 07:00:28;;;;;;;23.73;9.20;;;;;;;9.88;75.76;100568.53;5090405;28;20048;-72
2022/04/25 07:02:55;;;;;;;18.58;8.18;;;;;;;10.01;74.76;100564.38;5097431;27;20480;-72
2022/04/25 07:05:21;;;;;;;15.88;9.00;;;;;;;10.02;74.93;100564.25;5090402;28;20491;-72
2022/04/25 07:07:48;;;;;;;15.88;8.73;;;;;;;10.05;75.03;100568.50;5091126;28;20052;-72
2022/04/25 07:10:14;;;;;;;16.92;7.88;;;;;;;10.18;73.63;100575.69;5109374;28;20046;-72
2022/04/25 07:12:41;;;;;;;17.17;8.98;;;;;;;10.02;74.54;100571.28;5108554;28;20080;-72
2022/04/25 07:15:09;;;;;;;15.07;8.32;;;;;;;10.07;75.00;100577.97;5091883;28;20090;-72
2022/04/25 07:17:37;;;;;;;17.58;9.07;;;;;;;10.40;73.89;100580.63;5090561;28;20529;-73
2022/04/25 07:20:04;;;;;;;18.60;8.82;;;;;;;10.33;73.84;100583.66;5094251;28;20055;-72
2022/04/25 07:30:43;;;;;;;14.13;8.48;;;;;;;10.12;74.89;100589.06;5100958;28;20062;-72
2022/04/25 07:33:10;;;;;;;14.70;8.32;;;;;;;10.21;75.21;100586.00;5091728;27;20097;-72
2022/04/25 07:35:39;;;;;;;16.30;8.15;;;;;;;10.36;72.71;100583.47;5110085;28;20047;-72
2022/04/25 07:38:05;;;;;;;14.00;7.85;;;;;;;10.60;72.15;100592.66;5095291;28;20093;-72
2022/04/25 07:40:32;;;;;;;11.43;7.25;;;;;;;10.86;71.66;100594.72;5090926;28;20403;-72
2022/04/25 07:42:58;;;;;;;13.93;8.82;;;;;;;10.77;72.75;100600.47;5092442;28;20090;-72
2022/04/25 07:45:25;;;;;;;12.32;7.75;;;;;;;10.78;71.74;100606.56;5109597;28;20054;-72
2022/04/25 07:47:51;;;;;;;11.30;7.32;;;;;;;10.20;72.08;100605.25;5104488;28;20060;-72
2022/04/25 07:50:23;;;;;;;12.80;7.25;;;;;;;10.54;72.13;100595.59;5091751;28;20048;-72
2022/04/25 07:52:49;;;;;;;12.68;7.75;;;;;;;10.71;71.25;100601.66;5096437;28;20051;-71
2022/04/25 07:55:16;;;;;;;13.45;8.10;;;;;;;11.07;70.36;100608.41;5109500;27;20039;-72
2022/04/25 07:57:42;;;;;;;13.98;7.95;;;;;;;11.14;72.21;100609.75;5109114;27;20112;-72
2022/04/25 08:00:09;;;;;;;16.67;9.00;;;;;;;10.62;71.17;100612.63;5098054;28;20071;-73
2022/04/25 08:02:36;;;;;;;17.15;8.07;;;;;;;10.31;73.18;100620.41;5080319;28;20045;-73
2022/04/25 08:05:02;;;;;;;11.82;7.32;;;;;;;10.62;72.55;100623.13;5083994;28;20415;-73
2022/04/25 08:07:30;;;;;;;12.77;7.80;;;;;;;10.73;72.99;100626.00;5105074;28;20052;-73
2022/04/25 08:09:56;;;;;;;15.18;7.97;;;;;;;11.08;72.05;100624.09;5083065;28;20049;-73
2022/04/25 08:18:04;;;;;;;12.32;7.28;;;;;;;10.75;71.10;100629.38;5103111;27;20055;-73
2022/04/25 08:20:34;;;;;;;14.60;7.38;;;;;;;11.20;70.63;100636.50;5082572;28;20565;-73
2022/04/25 08:23:03;;;;;;;12.48;7.45;;;;;;;11.28;70.67;100633.47;5088702;28;20532;-73
2022/04/25 08:25:31;;;;;;;15.25;7.75;;;;;;;11.00;70.11;100636.78;5087437;27;20105;-72
2022/04/25 08:27:58;;;;;;;10.48;6.82;;;;;;;10.07;73.72;100640.00;5104371;28;20074;-72
2022/04/25 08:30:24;;;;;;;13.02;6.93;;;;;;;10.49;72.34;100642.22;5089495;28;20047;-72
2022/04/25 08:32:51;;;;;;;13.30;7.80;;;;;;;11.03;71.60;100649.72;5081808;28;20101;-72
2022/04/25 08:35:18;;;;;;;11.40;7.72;;;;;;;11.37;70.80;100648.69;5080467;28;20403;-72
2022/04/25 08:37:44;;;;;;;14.50;7.20;;;;;;;11.45;69.37;100646.50;5087281;28;20048;-72
2022/04/25 08:40:12;;;;;;;15.65;6.68;;;;;;;11.39;69.54;100652.06;5091569;28;20122;-72
2022/04/25 08:42:38;;;;;;;14.40;7.22;;;;;;;11.38;69.14;100662.69;5119270;28;20036;-71
2022/04/25 08:45:07;;;;;;;11.55;7.30;;;;;;;11.60;68.15;100661.34;5109597;28;20054;-71
2022/04/25 08:47:37;;;;;;;13.88;7.28;;;;;;;12.03;67.40;100658.91;5083184;28;20036;-71
2022/04/25 08:50:05;;;;;;;10.93;6.90;;;;;;;12.40;66.15;100652.31;5103384;28;20048;-71
2022/04/25 08:52:32;;;;;;;12.95;6.90;;;;;;;12.52;65.01;100662.09;5101997;28;20040;-71
2022/04/25 08:55:00;;;;;;;13.68;7.80;;;;;;;12.72;64.62;100656.44;5114058;27;20059;-71
2022/04/25 08:57:31;;;;;;;12.27;6.93;;;;;;;12.61;63.51;100666.78;5108204;27;20047;-72
2022/04/25 08:59:59;;;;;;;10.40;6.35;;;;;;;12.68;64.50;100666.31;5094667;28;20048;-72
2022/04/25 09:02:26;;;;;;;14.98;7.10;;;;;;;12.62;65.35;100663.22;5088916;28;20794;-73
2022/04/25 09:04:52;;;;;;;10.80;6.68;;;;;;;12.11;63.94;100662.78;5107898;28;20043;-72
2022/04/25 09:07:19;;;;;;;12.38;7.20;;;;;;;12.56;66.90;100674.13;5109243;28;20390;-72
2022/04/25 09:09:46;;;;;;;12.35;6.90;;;;;;;12.93;64.90;100677.97;5105967;28;20203;-72
2022/04/25 09:12:14;;;;;;;8.80;6.28;;;;;;;13.18;62.78;100685.19;5108731;28;20051;-72
2022/04/25 09:14:43;;;;;;;11.27;7.63;;;;;;;13.24;64.56;100677.75;5107906;28;20073;-72
2022/04/25 09:17:10;;;;;;;12.82;6.55;;;;;;;13.11;64.66;100677.69;5095723;28;20043;-72
2022/04/25 09:19:38;;;;;;;15.32;6.95;;;;;;;12.98;63.78;100691.66;5077918;28;20521;-72
2022/04/25 09:22:06;;;;;;;9.98;6.53;;;;;;;13.09;64.38;100689.19;5091045;28;20337;-72
2022/04/25 09:24:33;;;;;;;10.68;7.18;;;;;;;12.19;66.97;100691.25;5099873;28;20083;-72
2022/04/25 09:27:12;;;;;;;11.23;6.57;;;;;;;12.07;67.29;100697.22;5107629;28;20241;-72
2022/04/25 09:29:39;;;;;;;10.90;6.80;;;;;;;12.10;65.44;100705.78;5096567;28;20040;-72
2022/04/25 09:32:09;;;;;;;11.38;6.38;;;;;;;12.42;66.31;100703.84;5107045;28;20085;-71
2022/04/25 09:37:20;;;;;;;8.73;5.40;;;;;;;12.99;64.98;100701.25;5090531;28;20066;-66
2022/04/25 09:39:47;;;;;;;12.02;5.68;;;;;;;13.20;62.82;100712.25;5073756;28;20101;-66
2022/04/25 09:42:14;;;;;;;7.93;5.45;;;;;;;12.84;63.00;100710.09;5087014;28;20044;-67
2022/04/25 09:44:56;;;;;;;10.50;6.38;;;;;;;13.22;63.76;100713.03;5080567;28;20571;-67
2022/04/25 09:47:28;;;;;;;11.18;6.22;;;;;;;13.14;62.46;100714.34;5085151;28;20055;-67
2022/04/25 09:50:02;;;;;;;9.88;6.40;;;;;;;13.22;64.05;100715.66;5085807;28;20098;-67
2022/04/25 09:52:29;;;;;;;12.43;5.68;;;;;;;13.10;63.34;100717.25;5086443;28;20048;-67
2022/04/25 09:54:58;;;;;;;9.10;5.82;;;;;;;12.80;63.89;100708.59;5080096;28;20243;-67
2022/04/25 09:57:31;;;;;;;8.45;6.10;;;;;;;12.87;65.70;100715.16;5068045;28;20400;-67
2022/04/25 09:59:57;;;;;;;13.25;6.35;;;;;;;12.49;66.39;100712.25;5078330;28;20049;-67
2022/04/25 10:02:23;;;;;;;9.73;6.10;;;;;;;12.50;64.83;100712.13;5085000;28;20068;-67
2022/04/25 10:04:52;;;;;;;9.38;6.07;;;;;;;12.49;65.96;100714.88;5073856;28;20048;-67
2022/04/25 10:07:22;;;;;;;11.68;6.00;;;;;;;12.72;64.68;100718.72;5077293;28;20109;-67
2022/04/25 10:09:52;;;;;;;9.60;5.85;;;;;;;12.91;64.13;100727.19;5087276;28;20058;-67
2022/04/25 10:12:18;;;;;;;13.02;6.07;;;;;;;13.11;64.17;100721.59;5087342;28;20510;-67
2022/04/25 10:14:46;;;;;;;10.80;6.05;;;;;;;13.17;63.23;100723.84;5088075;28;20044;-67
2022/04/25 10:17:12;;;;;;;9.70;5.78;;;;;;;13.42;62.56;100731.88;5087445;28;20105;-68
2022/04/25 10:19:39;;;;;;;8.50;5.60;;;;;;;13.51;62.87;100733.94;5087217;28;20040;-67
2022/04/25 10:22:07;;;;;;;10.07;5.32;;;;;;;14.08;61.39;100737.19;5087859;28;20055;-67
2022/04/25 10:24:34;;;;;;;9.82;5.65;;;;;;;13.94;60.56;100736.41;5083486;28;20048;-67
2022/04/25 10:27:08;;;;;;;8.75;5.57;;;;;;;14.25;61.03;100727.31;5070395;28;20063;-67
2022/04/25 10:29:36;;;;;;;11.45;5.85;;;;;;;14.74;57.89;100727.50;5083579;28;20050;-67
2022/04/25 10:32:04;;;;;;;10.55;5.45;;;;;;;15.09;56.97;100728.53;5081165;28;20048;-67
2022/04/25 10:34:47;;;;;;;9.50;5.05;;;;;;;14.50;56.11;100732.66;5085785;28;21056;-67
2022/04/25 10:37:32;;;;;;;9.35;5.38;;;;;;;14.63;58.40;100726.44;5084250;28;20048;-67
2022/04/25 10:40:00;;;;;;;8.93;5.20;;;;;;;14.75;60.72;100723.91;5087069;28;20056;-67
2022/04/25 10:45:11;;;;;;;8.55;5.40;;;;;;;14.68;57.54;100726.13;5082199;28;20411;-67
2022/04/25 10:47:37;;;;;;;7.53;5.30;;;;;;;15.23;58.62;100731.03;5083261;28;20045;-67
2022/04/25 10:50:09;;;;;;;8.07;4.88;;;;;;;15.14;56.21;100723.78;5071168;28;20046;-67
2022/04/25 10:53:01;;;;;;;8.27;5.32;;;;;;;15.43;56.85;100732.25;5075897;28;20132;-67
2022/04/25 10:55:46;;;;;;;7.63;4.75;;;;;;;16.33;59.77;100724.66;5082230;28;20043;-67
2022/04/25 10:58:17;;;;;;;10.57;5.07;;;;;;;16.29;52.84;100720.56;5079364;28;20071;-67
2022/04/25 11:00:54;;;;;;;7.22;5.18;;;;;;;16.60;53.91;100719.09;5081040;28;20051;-67
2022/04/25 11:03:27;;;;;;;6.85;4.80;;;;;;;16.64;53.66;100722.34;5080600;28;20040;-67
2022/04/25 11:05:55;;;;;;;7.47;4.70;;;;;;;16.12;53.19;100728.91;5091195;28;20050;-67
2022/04/25 11:08:33;;;;;;;10.73;5.80;;;;;;;15.81;55.58;100729.53;5087986;28;20123;-67
2022/04/25 11:11:06;;;;;;;9.88;5.43;;;;;;;16.15;55.71;100741.91;5089866;28;20097;-67
2022/04/25 11:13:35;;;;;;;8.10;5.18;;;;;;;16.24;55.92;100749.16;5088968;27;20047;-68
2022/04/25 11:16:15;;;;;;;8.98;5.40;;;;;;;16.45;55.44;100736.09;5088310;28;20052;-67
2022/04/25 11:18:42;;;;;;;7.65;5.00;;;;;;;16.32;56.49;100746.81;5090334;28;20637;-67
2022/04/25 11:21:12;;;;;;;8.05;5.05;;;;;;;16.59;54.77;100741.25;5081137;28;20040;-67
2022/04/25 11:23:49;;;;;;;9.18;5.68;;;;;;;16.89;51.82;100745.97;5090800;28;20123;-67
2022/04/25 11:26:48;;;;;;;7.00;5.05;;;;;;;17.21;53.46;100748.75;5089102;28;20097;-67
2022/04/25 11:29:15;;;;;;;10.15;5.20;;;;;;;17.64;53.68;100748.84;5085910;28;20035;-68
2022/04/25 11:31:41;;;;;;;8.73;5.32;;;;;;;18.00;51.25;100759.09;5088310;28;20066;-67
2022/04/25 11:34:11;;;;;;;10.10;4.88;;;;;;;17.71;49.92;100760.63;5077039;28;20041;-67
2022/04/25 11:36:39;;;;;;;9.90;5.47;;;;;;;17.49;51.96;100753.53;5069680;28;20044;-67
2022/04/25 11:41:51;;;;;;;8.15;4.88;;;;;;;17.72;49.91;100757.88;5085622;28;20125;-67
2022/04/25 11:44:17;;;;;;;10.18;5.80;;;;;;;17.42;52.32;100763.78;5086419;28;20113;-67
2022/04/25 11:46:44;;;;;;;9.82;5.38;;;;;;;17.62;54.68;100761.38;5088658;28;20043;-67
2022/04/25 11:49:11;;;;;;;7.85;5.30;;;;;;;17.87;53.25;100766.38;5088151;28;20134;-67
2022/04/25 11:51:39;;;;;;;7.30;5.40;;;;;;;18.05;51.22;100767.53;5089159;28;20048;-67
2022/04/25 11:54:08;;;;;;;7.35;5.20;;;;;;;18.15;49.99;100764.94;5089855;28;20051;-67
2022/04/25 11:56:37;;;;;;;8.02;5.47;;;;;;;18.38;53.15;100759.44;5089954;28;20036;-67
2022/04/25 11:59:07;;;;;;;10.93;5.88;;;;;;;18.52;49.57;100766.25;5089037;28;20048;-67
2022/04/25 12:01:35;;;;;;;10.00;5.70;;;;;;;18.46;48.24;100767.59;5081381;28;20423;-67